Time;durP1;ratioP1;P1;durP2;ratioP2;P2;SDS_P1;SDS_P2;PMS_P1;PMS_P2;Temp;Humidity;BMP_temperature;BMP_pressure;BME280_temperature;BME280_humidity;BME280_pressure;Samples;Min_cycle;Max_cycle;Signal;HPM_P1;HPM_P2
2024/04/25 00:01:16;;;;;;;6.05;2.08;;;;;;;4.88;100.00;100514.06;5409646;26;20370;-70
2024/04/25 00:03:42;;;;;;;11.05;2.40;;;;;;;4.92;100.00;100518.97;5412302;26;20018;-71
2024/04/25 00:06:08;;;;;;;10.55;2.97;;;;;;;4.92;100.00;100509.50;5380941;26;20015;-71
2024/04/25 00:08:34;;;;;;;8.57;2.42;;;;;;;4.85;100.00;100501.47;5406705;26;20018;-71
2024/04/25 00:11:00;;;;;;;8.93;3.15;;;;;;;4.82;100.00;100501.75;5432668;26;20003;-71
2024/04/25 00:13:26;;;;;;;9.60;2.40;;;;;;;4.92;100.00;100504.38;5438933;26;20011;-71
2024/04/25 00:15:54;;;;;;;10.38;3.00;;;;;;;4.90;100.00;100503.69;5403430;26;20631;-72
2024/04/25 00:18:20;;;;;;;10.35;2.42;;;;;;;4.86;100.00;100495.41;5432762;26;20003;-71
2024/04/25 00:20:46;;;;;;;13.10;3.05;;;;;;;5.02;100.00;100504.41;5427825;26;20052;-71
2024/04/25 00:23:12;;;;;;;7.88;3.03;;;;;;;4.95;100.00;100496.38;5433670;26;20026;-71
2024/04/25 00:25:38;;;;;;;8.75;2.63;;;;;;;4.91;100.00;100500.16;5407737;26;21545;-71
2024/04/25 00:28:04;;;;;;;9.90;3.13;;;;;;;4.85;100.00;100498.09;5433599;26;20520;-71
2024/04/25 00:30:30;;;;;;;6.53;2.90;;;;;;;4.75;100.00;100494.66;5405377;26;20015;-71
2024/04/25 00:32:58;;;;;;;8.52;3.33;;;;;;;4.72;100.00;100490.56;5408775;26;20003;-71
2024/04/25 00:35:26;;;;;;;8.13;3.15;;;;;;;4.81;100.00;100487.25;5444118;26;20005;-71
2024/04/25 00:37:52;;;;;;;12.50;3.75;;;;;;;4.83;100.00;100490.50;5415434;26;20072;-71
2024/04/25 00:40:18;;;;;;;7.55;2.85;;;;;;;4.81;100.00;100501.88;5435901;26;20346;-71
2024/04/25 00:42:44;;;;;;;9.50;3.28;;;;;;;4.86;100.00;100492.03;5440012;26;20007;-71
2024/04/25 00:45:10;;;;;;;7.82;2.78;;;;;;;4.79;100.00;100494.28;5437941;26;19998;-72
2024/04/25 00:47:37;;;;;;;11.18;3.38;;;;;;;4.77;100.00;100485.88;5436996;26;20010;-72
2024/04/25 00:50:04;;;;;;;8.48;3.10;;;;;;;4.77;100.00;100487.66;5410907;26;20003;-73
2024/04/25 00:52:31;;;;;;;12.95;3.38;;;;;;;4.79;100.00;100483.19;5446792;26;20003;-72
2024/04/25 00:54:57;;;;;;;12.23;3.08;;;;;;;4.74;100.00;100488.69;5410754;26;20036;-72
2024/04/25 00:57:26;;;;;;;13.65;4.13;;;;;;;4.68;100.00;100490.00;5381183;26;19999;-72
2024/04/25 00:59:56;;;;;;;9.00;3.67;;;;;;;4.73;100.00;100483.66;5441531;26;20041;-72
2024/04/25 01:02:22;;;;;;;13.70;3.40;;;;;;;4.61;100.00;100488.06;5440471;26;20007;-71
2024/04/25 01:04:49;;;;;;;12.48;3.60;;;;;;;4.57;100.00;100482.34;5441088;26;20473;-72
2024/04/25 01:07:15;;;;;;;9.52;3.72;;;;;;;4.56;100.00;100487.63;5411630;26;20090;-72
2024/04/25 01:09:41;;;;;;;8.20;3.88;;;;;;;4.60;100.00;100492.41;5434883;26;20031;-72
2024/04/25 01:12:08;;;;;;;8.70;3.30;;;;;;;4.57;100.00;100477.22;5440555;26;20030;-71
2024/04/25 01:14:34;;;;;;;19.17;4.60;;;;;;;4.64;100.00;100474.97;5442549;26;20076;-71
2024/04/25 01:17:00;;;;;;;8.88;3.55;;;;;;;4.59;100.00;100475.34;5410874;26;20014;-71
2024/04/25 01:19:26;;;;;;;12.63;3.55;;;;;;;4.59;100.00;100472.78;5450380;26;20003;-71
2024/04/25 01:21:52;;;;;;;11.43;3.28;;;;;;;4.64;100.00;100472.41;5402156;26;20003;-71
2024/04/25 01:24:27;;;;;;;14.70;4.40;;;;;;;4.52;100.00;100463.97;5405230;26;20041;-71
2024/04/25 01:26:53;;;;;;;18.80;3.40;;;;;;;4.53;100.00;100469.91;5444497;26;20042;-71
2024/04/25 01:29:19;;;;;;;15.32;2.97;;;;;;;4.54;100.00;100468.94;5409294;26;20000;-71
2024/04/25 01:31:47;;;;;;;14.48;3.05;;;;;;;4.51;100.00;100471.78;5414270;26;20010;-71
2024/04/25 01:34:14;;;;;;;10.43;2.97;;;;;;;4.49;100.00;100466.78;5441008;26;20002;-71
2024/04/25 01:36:42;;;;;;;7.32;2.75;;;;;;;4.45;100.00;100458.50;5441549;26;19996;-71
2024/04/25 01:39:12;;;;;;;21.50;4.35;;;;;;;4.52;100.00;100460.56;5410998;26;20502;-71
2024/04/25 01:41:38;;;;;;;12.65;3.05;;;;;;;4.47;100.00;100459.19;5402071;26;20414;-71
2024/04/25 01:44:04;;;;;;;11.02;2.97;;;;;;;4.44;100.00;100458.63;5403701;26;20508;-71
2024/04/25 01:46:31;;;;;;;16.52;4.40;;;;;;;4.46;100.00;100451.59;5413640;26;20022;-71
2024/04/25 01:48:59;;;;;;;12.30;3.60;;;;;;;4.44;100.00;100459.41;5440258;26;20327;-71
2024/04/25 01:51:26;;;;;;;9.93;3.33;;;;;;;4.47;100.00;100458.38;5434142;26;20403;-71
2024/04/25 01:53:52;;;;;;;10.40;3.53;;;;;;;4.42;100.00;100456.16;5442039;26;19999;-71
2024/04/25 01:56:18;;;;;;;12.43;2.85;;;;;;;4.46;100.00;100451.59;5406426;26;20000;-71
2024/04/25 01:58:43;;;;;;;26.95;4.22;;;;;;;4.45;100.00;100445.66;5438377;26;20017;-71
2024/04/25 02:01:09;;;;;;;9.57;2.63;;;;;;;4.39;100.00;100456.44;5407022;26;20004;-71
2024/04/25 02:03:35;;;;;;;14.68;3.13;;;;;;;4.37;100.00;100455.75;5411535;26;20007;-71
2024/04/25 02:06:03;;;;;;;14.77;2.85;;;;;;;4.31;100.00;100457.97;5439099;26;20449;-71
2024/04/25 02:08:29;;;;;;;9.80;2.80;;;;;;;4.31;100.00;100451.09;5438945;26;20005;-71
2024/04/25 02:10:55;;;;;;;12.68;3.00;;;;;;;4.31;100.00;100453.66;5427471;26;20002;-70
2024/04/25 02:13:21;;;;;;;14.48;3.10;;;;;;;4.37;100.00;100460.88;5409853;26;20007;-71
2024/04/25 02:15:47;;;;;;;26.42;3.83;;;;;;;4.22;100.00;100459.53;5436319;26;20365;-71
2024/04/25 02:18:13;;;;;;;13.45;2.58;;;;;;;4.31;100.00;100460.53;5442704;26;20003;-71
2024/04/25 02:26:10;;;;;;;17.13;3.53;;;;;;;4.21;100.00;100445.06;5435610;26;19999;-71
2024/04/25 02:28:36;;;;;;;19.25;3.55;;;;;;;4.17;100.00;100446.25;5409070;26;20027;-70
2024/04/25 02:31:03;;;;;;;16.77;4.20;;;;;;;4.09;100.00;100445.13;5433386;26;20425;-71
2024/04/25 02:33:29;;;;;;;15.60;3.70;;;;;;;3.98;100.00;100444.34;5437283;26;20403;-71
2024/04/25 02:35:55;;;;;;;15.63;3.22;;;;;;;4.03;100.00;100444.78;5432095;26;20085;-71
2024/04/25 02:38:22;;;;;;;13.27;3.50;;;;;;;3.96;100.00;100444.47;5401172;26;19999;-71
2024/04/25 02:40:48;;;;;;;16.60;2.72;;;;;;;3.84;100.00;100448.81;5436331;26;20007;-71
2024/04/25 02:43:14;;;;;;;10.75;3.33;;;;;;;3.81;100.00;100448.25;5432784;26;20007;-71
2024/04/25 02:45:40;;;;;;;22.77;3.97;;;;;;;3.79;100.00;100452.69;5450169;26;20006;-71
2024/04/25 02:48:06;;;;;;;10.13;3.60;;;;;;;3.76;100.00;100447.78;5433413;26;20598;-72
2024/04/25 02:50:32;;;;;;;17.25;3.05;;;;;;;3.76;100.00;100452.91;5438326;26;20006;-71
2024/04/25 02:52:58;;;;;;;7.03;3.38;;;;;;;3.72;100.00;100451.53;5406532;26;20010;-71
2024/04/25 02:55:24;;;;;;;7.18;2.97;;;;;;;3.68;100.00;100448.38;5406457;26;20018;-71
2024/04/25 02:57:52;;;;;;;22.35;4.57;;;;;;;3.68;100.00;100453.53;5433353;26;20010;-71
2024/04/25 03:00:18;;;;;;;16.13;3.50;;;;;;;3.62;100.00;100446.31;5443277;26;20076;-71
2024/04/25 03:02:44;;;;;;;9.23;3.25;;;;;;;3.51;100.00;100444.56;5411158;26;20003;-70
2024/04/25 03:05:10;;;;;;;11.40;3.42;;;;;;;3.49;100.00;100447.25;5402206;26;20084;-71
2024/04/25 03:07:36;;;;;;;10.32;3.08;;;;;;;3.55;100.00;100451.09;5444448;26;20554;-71
2024/04/25 03:10:03;;;;;;;15.35;3.22;;;;;;;3.50;100.00;100446.34;5407462;26;20015;-71
2024/04/25 03:12:29;;;;;;;16.02;4.22;;;;;;;3.40;100.00;100444.59;5441864;26;20085;-71
2024/04/25 03:14:56;;;;;;;10.15;3.50;;;;;;;3.35;100.00;100444.13;5408955;26;20014;-71
2024/04/25 03:17:22;;;;;;;15.98;3.55;;;;;;;3.30;100.00;100439.34;5436199;26;20074;-71
2024/04/25 03:19:48;;;;;;;14.20;4.22;;;;;;;3.26;100.00;100436.22;5453104;26;20344;-71
2024/04/25 03:22:14;;;;;;;10.23;3.97;;;;;;;3.20;100.00;100436.69;5402472;26;20014;-71
2024/04/25 03:24:40;;;;;;;12.32;3.95;;;;;;;3.17;100.00;100434.34;5436498;26;20007;-71
2024/04/25 03:27:06;;;;;;;8.50;2.95;;;;;;;3.14;100.00;100426.06;5432831;26;20073;-71
2024/04/25 03:29:32;;;;;;;15.15;3.40;;;;;;;3.17;100.00;100429.22;5441437;26;20466;-70
2024/04/25 03:31:58;;;;;;;12.30;3.08;;;;;;;3.19;100.00;100429.91;5411331;26;20038;-71
2024/04/25 03:34:24;;;;;;;17.52;4.18;;;;;;;3.11;100.00;100427.94;5404566;26;20007;-72
2024/04/25 03:36:50;;;;;;;9.98;3.45;;;;;;;3.07;100.00;100435.97;5410050;26;20014;-71
2024/04/25 03:39:20;;;;;;;11.38;3.00;;;;;;;3.02;100.00;100432.94;5444579;26;20002;-71
2024/04/25 03:41:50;;;;;;;13.77;4.05;;;;;;;2.98;100.00;100432.38;5437133;26;20010;-71
2024/04/25 03:44:16;;;;;;;11.48;3.60;;;;;;;2.95;100.00;100417.22;5440212;26;20002;-71
2024/04/25 03:46:44;;;;;;;16.85;4.47;;;;;;;2.95;100.00;100427.47;5411198;26;20003;-71
2024/04/25 03:49:10;;;;;;;10.63;3.30;;;;;;;2.94;100.00;100430.97;5403005;26;20000;-71
2024/04/25 03:51:36;;;;;;;12.32;3.25;;;;;;;2.96;100.00;100429.09;5446990;26;20031;-71
2024/04/25 03:54:03;;;;;;;9.38;3.30;;;;;;;2.95;100.00;100427.47;5409792;26;19995;-71
2024/04/25 03:56:29;;;;;;;15.30;3.55;;;;;;;2.91;100.00;100432.00;5436520;26;20003;-71
2024/04/25 03:58:56;;;;;;;10.50;3.42;;;;;;;2.92;100.00;100427.72;5427827;26;20014;-71
2024/04/25 04:01:22;;;;;;;13.93;3.70;;;;;;;2.89;100.00;100438.19;5436074;26;20015;-71
2024/04/25 04:03:48;;;;;;;17.88;3.63;;;;;;;2.91;100.00;100428.63;5441636;26;20030;-71
2024/04/25 04:06:18;;;;;;;18.33;3.72;;;;;;;2.89;100.00;100431.31;5382944;26;20003;-71
2024/04/25 04:08:44;;;;;;;15.15;4.30;;;;;;;2.90;100.00;100432.09;5442342;26;20015;-71
2024/04/25 04:11:10;;;;;;;12.27;3.97;;;;;;;2.89;100.00;100428.75;5410702;26;20003;-71
2024/04/25 04:13:36;;;;;;;12.98;3.33;;;;;;;2.87;100.00;100425.47;5405514;26;20018;-71
2024/04/25 04:16:03;;;;;;;10.13;3.58;;;;;;;2.96;100.00;100430.84;5442657;26;20052;-71
2024/04/25 04:18:29;;;;;;;17.35;3.60;;;;;;;2.91;100.00;100437.13;5433001;26;20003;-71
2024/04/25 04:20:55;;;;;;;17.50;3.78;;;;;;;2.93;100.00;100430.13;5444526;26;20009;-71
2024/04/25 04:23:21;;;;;;;11.07;3.70;;;;;;;2.97;100.00;100433.28;5442601;26;19999;-71
2024/04/25 04:25:47;;;;;;;19.20;4.43;;;;;;;2.97;100.00;100433.28;5438753;26;20007;-71
2024/04/25 04:28:13;;;;;;;15.75;4.85;;;;;;;2.95;100.00;100434.34;5442041;26;20016;-72
2024/04/25 04:30:39;;;;;;;12.73;4.18;;;;;;;2.96;100.00;100436.78;5441199;26;20453;-71
2024/04/25 04:33:05;;;;;;;16.08;4.63;;;;;;;2.97;100.00;100440.97;5407717;26;20002;-71
2024/04/25 04:35:31;;;;;;;12.63;4.32;;;;;;;3.02;100.00;100441.44;5444357;26;20074;-71
2024/04/25 04:37:57;;;;;;;9.85;4.50;;;;;;;2.99;100.00;100433.16;5434919;26;20760;-71
2024/04/25 04:40:23;;;;;;;15.38;5.18;;;;;;;2.99;100.00;100436.53;5441843;26;20015;-71
2024/04/25 04:42:49;;;;;;;9.02;4.25;;;;;;;3.02;100.00;100443.19;5408865;26;20022;-71
2024/04/25 04:45:15;;;;;;;14.30;5.15;;;;;;;3.09;100.00;100439.25;5408006;26;20018;-71
2024/04/25 04:47:41;;;;;;;20.63;5.13;;;;;;;3.16;100.00;100442.16;5435032;26;20566;-71
2024/04/25 04:50:07;;;;;;;16.27;5.93;;;;;;;3.15;100.00;100435.41;5395658;26;20002;-71
2024/04/25 04:52:33;;;;;;;18.48;5.47;;;;;;;3.10;100.00;100428.06;5398594;26;20003;-71
2024/04/25 04:55:00;;;;;;;9.07;4.95;;;;;;;3.11;100.00;100429.69;5436438;26;20007;-71
2024/04/25 04:57:26;;;;;;;11.75;4.93;;;;;;;3.14;100.00;100421.75;5439632;26;20222;-71
2024/04/25 04:59:52;;;;;;;18.20;5.88;;;;;;;3.20;100.00;100418.75;5433834;26;20462;-71
2024/04/25 05:02:18;;;;;;;12.90;5.93;;;;;;;3.19;100.00;100432.47;5404909;26;20526;-71
2024/04/25 05:04:44;;;;;;;16.98;5.15;;;;;;;3.19;100.00;100426.56;5374206;26;20794;-71
2024/04/25 05:07:10;;;;;;;15.35;6.30;;;;;;;3.25;100.00;100418.38;5410514;26;20013;-70
2024/04/25 05:09:36;;;;;;;13.10;5.32;;;;;;;3.31;100.00;100417.91;5438477;26;20791;-71
2024/04/25 05:12:02;;;;;;;12.27;4.72;;;;;;;3.36;100.00;100415.81;5431577;26;20007;-71
2024/04/25 05:14:28;;;;;;;14.85;5.38;;;;;;;3.44;100.00;100422.91;5441218;26;20004;-71
2024/04/25 05:16:54;;;;;;;15.13;6.15;;;;;;;3.52;100.00;100423.13;5404922;26;20007;-71
2024/04/25 05:19:20;;;;;;;15.00;5.72;;;;;;;3.58;100.00;100421.81;5404174;26;19999;-71
2024/04/25 05:21:50;;;;;;;19.00;5.68;;;;;;;3.78;100.00;100407.44;5434842;26;20018;-70
2024/04/25 05:24:16;;;;;;;12.18;4.93;;;;;;;3.75;100.00;100412.81;5407427;26;20091;-71
2024/04/25 05:26:42;;;;;;;18.92;5.78;;;;;;;3.85;100.00;100408.59;5407263;26;19998;-71
2024/04/25 05:29:09;;;;;;;17.00;5.57;;;;;;;3.94;100.00;100414.72;5439336;26;20752;-71
2024/04/25 05:31:35;;;;;;;16.10;5.82;;;;;;;3.95;100.00;100411.22;5404059;26;20010;-71
2024/04/25 05:34:01;;;;;;;11.68;5.25;;;;;;;3.93;100.00;100426.75;5405481;26;19999;-71
2024/04/25 05:36:27;;;;;;;16.40;6.03;;;;;;;4.06;100.00;100418.88;5436265;26;20009;-71
2024/04/25 05:38:53;;;;;;;13.60;4.97;;;;;;;4.09;100.00;100418.66;5440737;26;20562;-71
2024/04/25 05:41:19;;;;;;;18.80;6.30;;;;;;;4.20;100.00;100418.59;5440621;26;20678;-71
2024/04/25 05:43:45;;;;;;;11.88;5.25;;;;;;;4.26;100.00;100425.00;5436105;26;20014;-71
2024/04/25 05:46:11;;;;;;;13.50;5.90;;;;;;;4.34;100.00;100425.19;5441079;26;20003;-71
2024/04/25 05:48:38;;;;;;;13.52;5.80;;;;;;;4.55;100.00;100426.94;5426680;26;20007;-71
2024/04/25 05:51:04;;;;;;;20.23;6.50;;;;;;;4.72;100.00;100417.84;5407873;26;19998;-71
2024/04/25 05:53:30;;;;;;;13.43;5.75;;;;;;;4.85;100.00;100414.13;5444493;26;20010;-71
2024/04/25 05:55:56;;;;;;;12.60;6.10;;;;;;;4.95;100.00;100416.72;5414481;26;19999;-71
2024/04/25 05:58:22;;;;;;;11.20;6.00;;;;;;;4.95;100.00;100416.72;5434716;26;20004;-71
2024/04/25 06:00:48;;;;;;;19.23;7.50;;;;;;;4.97;100.00;100417.44;5440040;26;20014;-71
2024/04/25 06:03:14;;;;;;;15.63;6.28;;;;;;;4.90;100.00;100408.59;5436983;26;20442;-71
2024/04/25 06:05:40;;;;;;;19.63;7.82;;;;;;;4.82;100.00;100414.38;5435780;26;19998;-71
2024/04/25 06:08:06;;;;;;;20.90;7.88;;;;;;;4.91;100.00;100417.13;5402405;26;20014;-71
2024/04/25 06:10:32;;;;;;;21.20;7.40;;;;;;;4.94;100.00;100417.69;5434340;26;20412;-72
2024/04/25 06:12:58;;;;;;;13.73;7.53;;;;;;;4.98;100.00;100413.91;5439460;26;20586;-71
2024/04/25 06:15:24;;;;;;;18.90;7.13;;;;;;;4.98;100.00;100413.91;5430855;26;20000;-71
2024/04/25 06:17:51;;;;;;;19.95;7.35;;;;;;;5.10;100.00;100422.34;5407853;26;20080;-71
2024/04/25 06:20:19;;;;;;;18.95;8.18;;;;;;;4.95;100.00;100411.59;5441055;26;20349;-71
2024/04/25 06:22:45;;;;;;;19.33;8.07;;;;;;;4.90;100.00;100423.19;5404243;26;20010;-71
2024/04/25 06:25:11;;;;;;;15.98;8.57;;;;;;;4.92;100.00;100418.75;5410976;26;20010;-71
2024/04/25 06:27:37;;;;;;;26.60;10.55;;;;;;;4.94;100.00;100427.16;5441027;26;20010;-71
2024/04/25 06:30:04;;;;;;;24.67;11.63;;;;;;;4.93;100.00;100413.47;5439770;26;20452;-71
2024/04/25 06:32:30;;;;;;;31.67;11.85;;;;;;;4.91;100.00;100429.97;5416009;26;20469;-70
2024/04/25 06:34:56;;;;;;;31.83;11.50;;;;;;;4.90;100.00;100426.59;5374909;26;20011;-70
2024/04/25 06:37:22;;;;;;;35.25;12.50;;;;;;;4.92;100.00;100419.56;5442629;26;19999;-70
2024/04/25 06:39:49;;;;;;;26.58;12.13;;;;;;;4.95;100.00;100424.44;5433138;26;20013;-71
2024/04/25 06:42:16;;;;;;;30.58;13.50;;;;;;;4.96;100.00;100415.00;5422773;26;20726;-71
2024/04/25 06:44:42;;;;;;;29.88;12.75;;;;;;;5.00;100.00;100424.88;5433022;26;20031;-71
2024/04/25 06:47:11;;;;;;;29.15;12.48;;;;;;;4.89;100.00;100427.53;5440494;26;20586;-71
2024/04/25 06:49:37;;;;;;;24.17;11.95;;;;;;;4.90;100.00;100412.91;5434033;26;19999;-71
2024/04/25 06:52:03;;;;;;;32.65;12.57;;;;;;;4.87;100.00;100419.94;5412349;26;20048;-71
2024/04/25 06:54:30;;;;;;;33.13;13.73;;;;;;;5.01;100.00;100413.66;5412813;26;19998;-70
2024/04/25 06:56:56;;;;;;;27.95;12.88;;;;;;;4.93;100.00;100412.66;5441529;26;20038;-71
2024/04/25 06:59:22;;;;;;;27.23;13.27;;;;;;;4.97;100.00;100411.47;5445595;26;20011;-71
2024/04/25 07:01:49;;;;;;;32.90;15.30;;;;;;;4.94;100.00;100409.16;5442317;26;20018;-70
2024/04/25 07:04:16;;;;;;;29.83;14.98;;;;;;;4.87;100.00;100414.00;5413767;26;19999;-70
2024/04/25 07:06:42;;;;;;;35.90;16.30;;;;;;;4.95;100.00;100405.63;5440236;26;20428;-71
2024/04/25 07:09:08;;;;;;;34.50;16.23;;;;;;;4.93;100.00;100404.97;5413247;26;20017;-71
2024/04/25 07:11:35;;;;;;;32.92;15.85;;;;;;;5.00;100.00;100412.03;5410875;26;19999;-70
2024/04/25 07:14:02;;;;;;;35.67;15.70;;;;;;;5.07;100.00;100399.47;5445058;26;20746;-71
2024/04/25 07:16:28;;;;;;;31.65;14.07;;;;;;;5.06;100.00;100408.13;5442878;26;20018;-71
2024/04/25 07:18:54;;;;;;;25.45;13.40;;;;;;;5.09;100.00;100396.78;5411461;26;19999;-70
2024/04/25 07:21:26;;;;;;;28.30;11.68;;;;;;;5.12;100.00;100407.59;5431318;26;20031;-70
2024/04/25 07:23:53;;;;;;;20.53;11.20;;;;;;;5.20;100.00;100400.06;5445653;26;20046;-70
2024/04/25 07:26:19;;;;;;;17.33;7.60;;;;;;;5.24;100.00;100400.63;5444050;26;20081;-71
2024/04/25 07:28:45;;;;;;;14.40;6.45;;;;;;;5.32;100.00;100403.34;5407353;26;20093;-71
2024/04/25 07:31:11;;;;;;;15.30;5.90;;;;;;;5.52;100.00;100399.06;5440793;26;20002;-70
2024/04/25 07:33:37;;;;;;;13.50;5.03;;;;;;;5.68;100.00;100397.72;5407599;26;20006;-70
2024/04/25 07:36:03;;;;;;;19.17;5.03;;;;;;;5.99;100.00;100395.84;5437485;26;21449;-71
2024/04/25 07:38:29;;;;;;;16.67;6.72;;;;;;;6.21;100.00;100397.34;5414806;26;20007;-71
2024/04/25 07:40:55;;;;;;;14.40;7.28;;;;;;;6.91;100.00;100394.44;5408263;26;19999;-70
2024/04/25 07:43:21;;;;;;;20.45;7.40;;;;;;;8.34;96.68;100386.84;5401542;26;19999;-71
2024/04/25 07:45:47;;;;;;;18.10;8.00;;;;;;;8.84;91.78;100381.97;5432656;26;20014;-71
2024/04/25 07:48:13;;;;;;;22.70;9.30;;;;;;;8.51;87.78;100384.34;5442362;26;20015;-71
2024/04/25 07:50:39;;;;;;;15.90;8.00;;;;;;;8.22;88.30;100384.63;5440873;26;20043;-71
2024/04/25 07:53:05;;;;;;;19.30;7.53;;;;;;;8.61;88.43;100385.09;5440443;26;20007;-71
2024/04/25 07:55:31;;;;;;;18.98;7.38;;;;;;;8.25;88.81;100389.47;5438618;26;20003;-71
2024/04/25 07:57:57;;;;;;;13.27;6.88;;;;;;;7.92;89.69;100387.47;5409035;26;20003;-71
2024/04/25 08:00:23;;;;;;;14.45;6.72;;;;;;;7.86;90.73;100387.25;5438365;26;20002;-71
2024/04/25 08:02:50;;;;;;;15.70;7.90;;;;;;;7.74;91.26;100384.91;5442050;26;20003;-71
2024/04/25 08:05:16;;;;;;;16.33;6.47;;;;;;;8.09;91.29;100391.00;5437885;26;20018;-71
2024/04/25 08:07:42;;;;;;;13.57;6.88;;;;;;;8.23;89.26;100387.06;5406384;26;20482;-72
2024/04/25 08:10:08;;;;;;;11.82;6.63;;;;;;;8.30;89.14;100389.84;5405085;26;20015;-71
2024/04/25 08:12:34;;;;;;;16.00;6.15;;;;;;;8.64;88.31;100382.19;5436300;26;20018;-71
2024/04/25 08:15:00;;;;;;;14.65;5.85;;;;;;;8.95;83.67;100381.69;5439900;26;20011;-71
2024/04/25 08:17:27;;;;;;;22.38;5.10;;;;;;;9.57;80.44;100388.31;5408634;26;20003;-71
2024/04/25 08:19:54;;;;;;;12.93;5.65;;;;;;;9.84;79.58;100384.66;5403721;26;20000;-71
2024/04/25 08:22:23;;;;;;;11.40;5.28;;;;;;;9.74;78.54;100388.19;5433233;26;20011;-71
2024/04/25 08:24:50;;;;;;;17.05;5.90;;;;;;;9.46;80.30;100379.09;5433714;26;20450;-71
2024/04/25 08:27:16;;;;;;;15.40;5.40;;;;;;;9.21;80.37;100383.38;5409523;26;20091;-71
2024/04/25 08:29:42;;;;;;;13.65;5.10;;;;;;;8.90;80.77;100376.97;5415924;26;20011;-72
2024/04/25 08:32:08;;;;;;;15.40;4.78;;;;;;;8.62;80.71;100380.72;5441695;26;20018;-72
2024/04/25 08:34:34;;;;;;;20.05;5.50;;;;;;;8.67;80.86;100381.06;5410551;26;19999;-71
2024/04/25 08:37:00;;;;;;;18.33;7.18;;;;;;;8.68;80.95;100386.09;5413282;26;20043;-71
2024/04/25 08:39:28;;;;;;;16.85;8.23;;;;;;;8.86;79.24;100385.22;5440600;26;20013;-71
2024/04/25 08:41:54;;;;;;;16.27;6.65;;;;;;;9.10;79.66;100387.09;5435672;26;20466;-71
2024/04/25 08:44:21;;;;;;;35.85;14.18;;;;;;;9.45;81.14;100377.47;5408739;26;20407;-71
2024/04/25 08:46:48;;;;;;;76.70;29.30;;;;;;;9.90;81.06;100374.44;5412082;26;20427;-71
2024/04/25 08:49:16;;;;;;;176.32;64.95;;;;;;;9.81;77.43;100380.59;5441920;26;20006;-71
2024/04/25 08:51:43;;;;;;;82.18;27.77;;;;;;;9.52;76.01;100376.69;5434418;26;20046;-71
2024/04/25 08:54:10;;;;;;;48.28;20.48;;;;;;;9.40;74.52;100367.59;5440651;26;20007;-71
2024/04/25 08:56:36;;;;;;;39.15;16.05;;;;;;;9.59;75.28;100373.44;5409920;26;19999;-71
2024/04/25 08:59:02;;;;;;;14.70;6.65;;;;;;;9.33;73.99;100367.41;5444045;26;20446;-71
2024/04/25 09:01:30;;;;;;;38.17;18.15;;;;;;;9.19;77.20;100373.19;5437053;26;19999;-71
2024/04/25 09:03:58;;;;;;;34.10;16.42;;;;;;;9.35;76.24;100365.47;5411565;26;20020;-71
2024/04/25 09:06:24;;;;;;;12.40;5.18;;;;;;;9.18;74.26;100371.59;5429885;26;19995;-71
2024/04/25 09:08:50;;;;;;;20.38;8.40;;;;;;;9.50;77.14;100365.66;5415917;26;20018;-72
2024/04/25 09:11:22;;;;;;;14.05;5.25;;;;;;;9.61;72.26;100351.63;5437806;26;20089;-71
2024/04/25 09:13:58;;;;;;;27.90;10.32;;;;;;;9.75;73.17;100366.50;5377793;26;20047;-71
2024/04/25 09:16:24;;;;;;;51.13;19.92;;;;;;;9.28;70.33;100353.34;5404549;26;20050;-72
2024/04/25 09:18:51;;;;;;;33.20;11.70;;;;;;;9.35;72.02;100346.56;5436449;26;20076;-72
2024/04/25 09:21:17;;;;;;;22.45;8.57;;;;;;;9.55;70.37;100347.09;5401106;26;20015;-71
2024/04/25 09:23:43;;;;;;;24.33;9.32;;;;;;;9.48;69.77;100346.91;5402089;26;20366;-71
2024/04/25 09:26:12;;;;;;;29.35;11.07;;;;;;;9.60;70.34;100338.84;5412514;26;20034;-72
2024/04/25 09:28:38;;;;;;;31.50;9.82;;;;;;;9.65;69.16;100339.97;5437564;26;20505;-71
2024/04/25 09:31:04;;;;;;;23.77;7.32;;;;;;;9.77;69.41;100330.09;5439620;26;20007;-71
2024/04/25 09:33:30;;;;;;;28.17;10.85;;;;;;;9.63;69.99;100331.56;5410497;26;20076;-71
2024/04/25 09:36:00;;;;;;;32.13;8.65;;;;;;;9.72;69.83;100327.19;5407258;26;20010;-72
2024/04/25 09:38:26;;;;;;;34.15;11.43;;;;;;;10.18;67.77;100331.84;5434179;26;19995;-72
2024/04/25 09:40:53;;;;;;;19.33;5.15;;;;;;;10.45;65.49;100320.31;5441037;26;20067;-71
2024/04/25 09:43:20;;;;;;;19.40;6.82;;;;;;;10.96;64.68;100320.75;5439927;26;20038;-72
2024/04/25 09:45:46;;;;;;;24.35;7.90;;;;;;;10.28;65.15;100335.91;5442616;26;20015;-72
2024/04/25 09:48:19;;;;;;;23.33;9.18;;;;;;;9.99;69.98;100331.22;5439400;26;20077;-72
2024/04/25 09:50:53;;;;;;;16.38;10.38;;;;;;;9.89;72.55;100334.00;5432751;26;20079;-72
2024/04/25 09:53:50;;;;;;;16.48;6.55;;;;;;;9.71;73.63;100322.97;5443298;26;20426;-71
2024/04/25 09:56:21;;;;;;;8.93;3.17;;;;;;;9.30;73.15;100328.09;5438520;26;19999;-72
2024/04/25 09:58:51;;;;;;;10.20;4.28;;;;;;;9.40;75.25;100328.78;5402284;26;20015;-72
2024/04/25 10:01:18;;;;;;;11.40;4.97;;;;;;;9.40;76.06;100320.19;5405282;26;20018;-72
2024/04/25 10:03:46;;;;;;;8.90;5.03;;;;;;;9.46;73.48;100320.38;5440695;26;20011;-73
2024/04/25 10:06:12;;;;;;;29.95;12.02;;;;;;;9.64;74.02;100327.97;5440698;26;20003;-72
2024/04/25 10:08:39;;;;;;;22.70;10.52;;;;;;;9.64;73.83;100316.81;5439120;26;20079;-72
2024/04/25 10:11:07;;;;;;;35.88;14.73;;;;;;;9.60;72.63;100331.06;5434971;26;19998;-72
2024/04/25 10:13:33;;;;;;;12.15;5.35;;;;;;;9.50;72.51;100326.06;5433384;26;19995;-72
2024/04/25 10:15:59;;;;;;;6.20;3.53;;;;;;;9.30;69.50;100321.16;5429812;26;20007;-72
2024/04/25 10:18:26;;;;;;;8.90;2.35;;;;;;;9.25;71.68;100326.00;5371902;26;20406;-73
2024/04/25 10:21:03;;;;;;;7.38;2.33;;;;;;;9.58;71.48;100317.47;5437000;26;20465;-72
2024/04/25 10:23:35;;;;;;;9.68;3.90;;;;;;;9.83;71.00;100313.09;5411369;26;20022;-72
2024/04/25 10:26:01;;;;;;;9.23;2.50;;;;;;;9.71;70.87;100308.25;5405955;26;20010;-72
2024/04/25 10:28:31;;;;;;;17.50;3.13;;;;;;;9.76;71.02;100307.78;5374671;26;20008;-72
2024/04/25 10:31:00;;;;;;;7.68;2.30;;;;;;;9.82;71.92;100308.91;5405346;26;20022;-72
2024/04/25 10:33:26;;;;;;;10.93;2.50;;;;;;;9.78;68.17;100297.25;5409792;26;20003;-72
2024/04/25 10:35:55;;;;;;;7.55;2.38;;;;;;;9.81;66.60;100300.31;5436795;26;20010;-72
2024/04/25 10:38:21;;;;;;;7.63;2.38;;;;;;;9.82;67.96;100301.94;5432439;26;20002;-75
2024/04/25 10:40:47;;;;;;;9.82;3.35;;;;;;;9.75;67.41;100298.38;5426682;26;20002;-72
2024/04/25 10:43:13;;;;;;;8.77;2.72;;;;;;;9.77;66.25;100286.06;5431282;26;20002;-73
2024/04/25 10:45:40;;;;;;;9.77;2.33;;;;;;;9.85;67.11;100291.28;5441621;26;20062;-72
2024/04/25 10:48:08;;;;;;;13.48;5.05;;;;;;;9.96;67.61;100284.13;5429555;26;20369;-71
2024/04/25 10:50:34;;;;;;;9.80;3.45;;;;;;;10.10;66.66;100279.06;5432192;26;20003;-72
2024/04/25 10:53:01;;;;;;;10.23;4.15;;;;;;;10.09;63.84;100274.06;5403384;26;20014;-72
2024/04/25 10:55:27;;;;;;;8.57;4.30;;;;;;;9.74;63.09;100283.84;5435911;26;20067;-72
2024/04/25 10:57:53;;;;;;;11.25;3.40;;;;;;;9.73;64.94;100284.78;5397412;26;20014;-72
2024/04/25 11:00:20;;;;;;;9.98;3.25;;;;;;;9.85;66.07;100283.50;5427596;26;20017;-71
2024/04/25 11:02:50;;;;;;;13.45;3.63;;;;;;;9.87;66.60;100275.53;5433019;26;20007;-71
2024/04/25 11:05:16;;;;;;;9.05;2.78;;;;;;;9.86;63.71;100279.91;5437078;26;20088;-72
2024/04/25 11:07:41;;;;;;;8.63;2.85;;;;;;;9.78;60.55;100276.56;5443298;26;20006;-71
2024/04/25 11:10:11;;;;;;;8.48;3.20;;;;;;;9.58;59.92;100273.47;5440903;26;19998;-72
2024/04/25 11:12:38;;;;;;;9.20;3.58;;;;;;;9.52;58.72;100277.53;5435238;26;20017;-72
2024/04/25 11:15:20;;;;;;;6.47;2.20;;;;;;;9.68;60.77;100272.34;5435029;26;20017;-72
2024/04/25 11:17:47;;;;;;;9.40;2.55;;;;;;;9.76;60.96;100274.13;5407451;26;20000;-71
2024/04/25 11:20:14;;;;;;;6.93;3.47;;;;;;;9.85;60.10;100277.50;5436730;26;19995;-71
2024/04/25 11:22:40;;;;;;;9.73;2.65;;;;;;;9.99;59.86;100263.09;5408837;26;20423;-72